createdAt,value
2019-04-23T00:00:17.044Z,100155.77
2019-04-23T00:03:12.820Z,100145.34
2019-04-23T00:09:31.231Z,100141.55
2019-04-23T00:12:43.843Z,100138.26
2019-04-23T00:15:45.798Z,100141.58
2019-04-23T00:18:42.334Z,100136.13
2019-04-23T00:21:45.926Z,100136.39
2019-04-23T00:27:59.340Z,100129.53
2019-04-23T00:31:12.269Z,100130.10
2019-04-23T00:34:01.092Z,100125.72
2019-04-23T00:37:11.799Z,100122.98
2019-04-23T00:40:16.640Z,100117.78
2019-04-23T00:43:22.900Z,100123.28
2019-04-23T00:46:24.913Z,100118.65
2019-04-23T00:49:26.962Z,100120.84
2019-04-23T00:52:26.387Z,100113.16
2019-04-23T00:55:28.449Z,100118.66
2019-04-23T00:58:41.530Z,100115.61
2019-04-23T01:01:42.927Z,100115.61
2019-04-23T01:04:48.009Z,100113.71
2019-04-23T01:07:45.709Z,100117.83
2019-04-23T01:14:06.725Z,100119.20
2019-04-23T01:17:08.598Z,100112.06
2019-04-23T01:20:08.460Z,100108.50
2019-04-23T01:22:57.095Z,100105.48
2019-04-23T01:26:20.987Z,100108.23
2019-04-23T01:29:28.342Z,100105.20
2019-04-23T01:35:33.368Z,100101.63
2019-04-23T01:41:49.216Z,100090.64
2019-04-23T01:44:54.954Z,100092.83
2019-04-23T01:50:56.065Z,100086.77
2019-04-23T01:53:57.141Z,100092.55
2019-04-23T01:57:03.698Z,100084.03
2019-04-23T02:03:26.917Z,100077.19
2019-04-23T02:06:14.782Z,100090.34
2019-04-23T02:09:17.117Z,100085.66
2019-04-23T02:12:28.252Z,100075.80
2019-04-23T02:15:31.920Z,100079.61
2019-04-23T02:18:33.897Z,100078.53
2019-04-23T02:21:39.814Z,100078.52
2019-04-23T02:24:51.148Z,100078.80
2019-04-23T02:27:57.520Z,100077.13
2019-04-23T02:31:18.274Z,100074.91
2019-04-23T02:34:14.297Z,100073.55
2019-04-23T02:37:00.359Z,100064.47
2019-04-23T02:40:26.350Z,100061.47
2019-04-23T02:43:13.108Z,100055.42
2019-04-23T02:52:21.713Z,100056.22
2019-04-23T02:55:38.941Z,100052.08
2019-04-23T02:58:36.712Z,100052.36
2019-04-23T03:04:40.033Z,100063.26
2019-04-23T03:10:51.279Z,100061.63
2019-04-23T03:13:54.293Z,100048.73
2019-04-23T03:16:56.353Z,100043.23
2019-04-23T03:29:35.423Z,100037.08
2019-04-23T03:38:48.376Z,100033.48
2019-04-23T03:41:47.993Z,100041.36
2019-04-23T03:47:56.180Z,100025.47
2019-04-23T03:50:43.716Z,100025.22
2019-04-23T03:54:11.643Z,100032.66
2019-04-23T04:03:25.012Z,100031.55
2019-04-23T04:06:39.527Z,100026.73
2019-04-23T04:12:36.075Z,100033.58
2019-04-23T04:19:22.984Z,100036.09
2019-04-23T04:21:36.345Z,100029.42
2019-04-23T04:31:00.530Z,100026.02
2019-04-23T04:37:22.339Z,100039.73
2019-04-23T04:58:39.366Z,100033.30
2019-04-23T05:01:23.080Z,100030.49
2019-04-23T05:10:51.632Z,100020.44
2019-04-23T05:16:54.689Z,100014.38
2019-04-23T05:19:58.847Z,100011.64
2019-04-23T05:26:00.188Z,100000.49
2019-04-23T05:32:07.564Z,100005.73
2019-04-23T05:35:15.074Z,99999.53
2019-04-23T05:38:30.050Z,100004.92
2019-04-23T05:41:22.211Z,99998.23
2019-04-23T05:44:38.345Z,100010.09
2019-04-23T05:47:27.382Z,100002.59
2019-04-23T05:50:42.591Z,100005.30
2019-04-23T05:53:42.446Z,100010.87
2019-04-23T05:56:42.207Z,100006.95
2019-04-23T06:05:54.458Z,100002.86
2019-04-23T06:08:58.450Z,99998.17
2019-04-23T06:12:00.118Z,100000.27
2019-04-23T06:15:04.915Z,99994.48
2019-04-23T06:18:17.835Z,99996.34
2019-04-23T06:21:15.637Z,99995.59
2019-04-23T06:24:27.329Z,99996.62
2019-04-23T06:27:32.082Z,100000.05
2019-04-23T06:30:35.337Z,99995.39
2019-04-23T06:33:32.300Z,100002.01
2019-04-23T06:36:34.345Z,99995.59
2019-04-23T06:43:01.273Z,99993.13
2019-04-23T06:46:07.205Z,99987.83
2019-04-23T06:49:09.480Z,99982.38
2019-04-23T06:52:18.353Z,99985.87
2019-04-23T06:55:25.442Z,99982.84
2019-04-23T06:58:28.942Z,99981.13
2019-04-23T07:01:19.215Z,99982.77
2019-04-23T07:07:43.095Z,99980.11
2019-04-23T07:10:39.001Z,99979.41
2019-04-23T07:13:46.619Z,99977.55
2019-04-23T07:16:38.554Z,99981.70
2019-04-23T07:19:53.644Z,99978.22
2019-04-23T07:22:59.600Z,99975.81
2019-04-23T07:26:03.785Z,99974.78
2019-04-23T07:32:05.396Z,99971.70
2019-04-23T07:35:16.099Z,99962.84
2019-04-23T07:38:38.510Z,99962.84
2019-04-23T07:41:59.456Z,99970.28
2019-04-23T07:51:14.114Z,99960.48
2019-04-23T07:54:25.772Z,99957.22
2019-04-23T08:00:38.339Z,99953.45
2019-04-23T08:03:48.193Z,99954.40
2019-04-23T08:06:41.003Z,99950.04
2019-04-23T08:09:50.907Z,99947.60
2019-04-23T08:12:46.828Z,99974.01
2019-04-23T08:15:46.587Z,99944.42
2019-04-23T08:18:55.495Z,99947.60
2019-04-23T08:22:07.064Z,99937.39
2019-04-23T08:25:10.981Z,99934.63
2019-04-23T08:28:13.379Z,99939.20
2019-04-23T08:31:14.181Z,99938.98
2019-04-23T08:37:45.412Z,99944.48
2019-04-23T08:40:33.861Z,99926.90
2019-04-23T08:43:41.056Z,99941.09
2019-04-23T08:46:56.857Z,99937.70
2019-04-23T08:50:08.453Z,99937.14
2019-04-23T08:53:10.686Z,99943.63
2019-04-23T08:56:14.997Z,99942.25
2019-04-23T08:59:09.393Z,99919.08
2019-04-23T09:05:32.468Z,99944.77
2019-04-23T09:11:35.879Z,99937.98
2019-04-23T09:14:20.035Z,99945.31
2019-04-23T09:20:43.234Z,99925.61
2019-04-23T09:23:45.109Z,99924.66
2019-04-23T09:26:41.470Z,99912.20
2019-04-23T09:29:54.070Z,99926.90
2019-04-23T09:32:54.491Z,99941.91
2019-04-23T09:36:18.128Z,99928.12
2019-04-23T09:39:46.944Z,99930.67
2019-04-23T09:43:00.531Z,99923.26
2019-04-23T09:46:23.609Z,99927.95
2019-04-23T09:49:31.127Z,99923.77
2019-04-23T09:55:38.496Z,99933.22
2019-04-23T09:58:35.719Z,99925.16
2019-04-23T10:01:36.354Z,99919.30
2019-04-23T10:04:36.619Z,99913.83
2019-04-23T10:07:39.718Z,99909.39
2019-04-23T10:10:32.247Z,99899.46
2019-04-23T10:13:34.625Z,99895.55
2019-04-23T10:16:37.023Z,99900.64
2019-04-23T10:19:40.637Z,99896.95
2019-04-23T10:22:44.277Z,99894.14
2019-04-23T10:25:47.861Z,99883.28
2019-04-23T10:28:55.943Z,99880.41
2019-04-23T10:31:59.743Z,99877.66
2019-04-23T10:35:15.085Z,99878.73
2019-04-23T10:38:10.796Z,99873.83
2019-04-23T10:41:12.035Z,99874.91
2019-04-23T10:44:25.659Z,99881.89
2019-04-23T10:48:21.638Z,99875.19
2019-04-23T10:51:25.016Z,99885.13
2019-04-23T10:57:25.316Z,99877.73
2019-04-23T11:00:36.107Z,99877.33
2019-04-23T11:04:01.548Z,99873.32
2019-04-23T11:06:47.448Z,99875.26
2019-04-23T11:13:07.378Z,99882.73
2019-04-23T11:19:15.172Z,99887.77
2019-04-23T11:22:28.089Z,99873.76
2019-04-23T11:25:26.310Z,99861.88
2019-04-23T11:28:20.459Z,99866.75
2019-04-23T11:31:30.996Z,99856.52
2019-04-23T11:34:54.741Z,99854.73
2019-04-23T11:37:43.866Z,99852.88
2019-04-23T11:40:33.721Z,99845.05
2019-04-23T11:43:42.415Z,99853.78
2019-04-23T11:46:53.361Z,99866.86
2019-04-23T11:49:53.223Z,99862.19
2019-04-23T11:52:56.357Z,99858.80
2019-04-23T11:55:53.499Z,99858.33
2019-04-23T11:59:09.369Z,99853.57
2019-04-23T12:02:07.501Z,99851.14
2019-04-23T12:08:36.835Z,99853.51
2019-04-23T12:12:31.177Z,99845.75
2019-04-23T12:14:47.614Z,99845.59
2019-04-23T12:17:56.005Z,99847.34
2019-04-23T12:21:05.943Z,99833.64
2019-04-23T12:24:28.487Z,99837.48
2019-04-23T12:27:25.982Z,99841.78
2019-04-23T12:30:25.336Z,99833.41
2019-04-23T12:33:28.114Z,99837.81
2019-04-23T12:36:37.670Z,99816.63
2019-04-23T12:39:42.442Z,99824.17
2019-04-23T12:45:42.489Z,99812.91
2019-04-23T12:48:56.728Z,99827.84
2019-04-23T12:51:57.513Z,99813.75
2019-04-23T12:55:08.660Z,99820.45
2019-04-23T12:58:11.500Z,99819.31
2019-04-23T13:01:10.674Z,99797.06
2019-04-23T13:04:16.381Z,99801.41
2019-04-23T13:07:26.363Z,99798.59
2019-04-23T13:10:22.195Z,99788.98
2019-04-23T13:16:53.598Z,99784.50
2019-04-23T13:22:47.662Z,99772.22
2019-04-23T13:25:57.058Z,99774.42
2019-04-23T13:29:04.936Z,99778.59
2019-04-23T13:32:07.082Z,99771.14
2019-04-23T13:35:36.234Z,99769.31
2019-04-23T13:44:26.082Z,99767.91
2019-04-23T13:47:38.208Z,99774.44
2019-04-23T13:50:43.324Z,99760.35
2019-04-23T13:57:13.003Z,99770.69
2019-04-23T13:59:44.440Z,99773.48
2019-04-23T14:02:49.453Z,99777.84
2019-04-23T14:06:01.765Z,99764.11
2019-04-23T14:12:09.058Z,99778.48
2019-04-23T14:15:25.711Z,99781.16
2019-04-23T14:18:41.935Z,99768.56
2019-04-23T14:24:32.431Z,99780.00
2019-04-23T14:33:46.049Z,99769.77
2019-04-23T14:36:52.731Z,99770.55
2019-04-23T14:39:54.206Z,99770.56
2019-04-23T14:43:01.772Z,99770.06
2019-04-23T14:49:19.260Z,99764.77
2019-04-23T14:52:14.238Z,99762.92
2019-04-23T15:01:35.409Z,99756.38
2019-04-23T15:04:33.604Z,99760.91
2019-04-23T15:07:34.640Z,99755.94
2019-04-23T15:13:44.561Z,99757.83
2019-04-23T15:16:54.453Z,99761.17
2019-04-23T15:20:03.239Z,99763.71
2019-04-23T15:23:25.449Z,99767.42
2019-04-23T15:27:01.864Z,99762.64
2019-04-23T15:28:58.519Z,99764.97
2019-04-23T15:32:31.625Z,99766.00
2019-04-23T15:35:29.504Z,99767.30
2019-04-23T15:41:40.143Z,99761.28
2019-04-23T15:44:46.528Z,99756.35
2019-04-23T15:47:50.724Z,99757.16
2019-04-23T15:50:56.052Z,99755.87
2019-04-23T15:53:56.744Z,99758.85
2019-04-23T15:57:01.174Z,99763.88
2019-04-23T15:59:58.964Z,99759.25
2019-04-23T16:02:38.065Z,99759.98
2019-04-23T16:05:41.571Z,99763.19
2019-04-23T16:09:06.424Z,99766.45
2019-04-23T16:12:14.969Z,99774.86
2019-04-23T16:15:35.818Z,99771.14
2019-04-23T16:18:45.758Z,99776.84
2019-04-23T16:21:54.675Z,99781.30
2019-04-23T16:24:49.067Z,99794.35
2019-04-23T16:27:50.417Z,99791.80
2019-04-23T16:30:57.159Z,99796.21
2019-04-23T16:37:18.045Z,99794.98
2019-04-23T16:40:31.877Z,99800.63
2019-04-23T16:43:19.828Z,99796.16
2019-04-23T16:46:28.686Z,99803.79
2019-04-23T16:52:34.478Z,99799.72
2019-04-23T16:55:52.245Z,99792.66
2019-04-23T17:01:54.016Z,99795.04
2019-04-23T17:04:54.630Z,99801.78
2019-04-23T17:08:25.148Z,99805.14
2019-04-23T17:14:09.134Z,99807.69
2019-04-23T17:16:58.244Z,99801.18
2019-04-23T17:20:25.740Z,99802.97
2019-04-23T17:29:35.347Z,99793.14
2019-04-23T17:32:36.810Z,99788.16
2019-04-23T17:36:18.302Z,99784.81
2019-04-23T17:48:32.830Z,99794.66
2019-04-23T17:51:40.570Z,99798.02
2019-04-23T17:57:46.065Z,99796.16
2019-04-23T18:01:02.577Z,99802.52
2019-04-23T18:04:05.816Z,99801.85
2019-04-23T18:07:04.402Z,99809.68
2019-04-23T18:10:24.961Z,99800.89
2019-04-23T18:13:16.884Z,99818.34
2019-04-23T18:19:16.734Z,99814.09
2019-04-23T18:22:35.516Z,99817.25
2019-04-23T18:28:58.655Z,99824.09
2019-04-23T18:32:16.990Z,99826.36
2019-04-23T18:35:19.308Z,99833.77
2019-04-23T18:38:29.146Z,99846.01
2019-04-23T18:41:17.540Z,99847.87
2019-04-23T18:44:38.375Z,99840.13
2019-04-23T18:47:41.712Z,99841.19
2019-04-23T18:50:48.173Z,99851.09
2019-04-23T18:57:02.022Z,99865.93
2019-04-23T19:03:11.684Z,99863.91
2019-04-23T19:10:16.882Z,99875.56
2019-04-23T19:16:13.137Z,99873.89
2019-04-23T19:22:43.237Z,99874.39
2019-04-23T19:25:23.018Z,99874.70
2019-04-23T19:28:47.639Z,99875.72
2019-04-23T19:31:57.000Z,99881.37
2019-04-23T19:35:04.130Z,99883.50
2019-04-23T19:38:13.454Z,99893.66
2019-04-23T19:41:23.832Z,99884.33
2019-04-23T19:44:29.258Z,99887.14
2019-04-23T19:50:43.721Z,99887.87
2019-04-23T19:56:51.410Z,99881.28
2019-04-23T20:06:13.780Z,99872.50
2019-04-23T20:12:03.203Z,99871.73
2019-04-23T20:18:09.055Z,99873.66
2019-04-23T20:21:08.316Z,99874.78
2019-04-23T20:24:55.729Z,99863.06
2019-04-23T20:27:26.388Z,99863.23
2019-04-23T20:34:24.558Z,99871.39
2019-04-23T20:37:06.516Z,99867.56
2019-04-23T20:40:23.686Z,99857.98
2019-04-23T20:43:28.823Z,99865.27
2019-04-23T20:46:25.242Z,99858.20
2019-04-23T20:49:42.327Z,99860.39
2019-04-23T20:52:26.224Z,99860.68
2019-04-23T20:58:57.010Z,99855.48
2019-04-23T21:02:06.333Z,99862.66
2019-04-23T21:05:06.251Z,99863.22
2019-04-23T21:08:12.346Z,99863.22
2019-04-23T21:11:03.075Z,99858.23
2019-04-23T21:14:33.466Z,99867.28
2019-04-23T21:17:14.316Z,99863.16
2019-04-23T21:20:24.469Z,99861.77
2019-04-23T21:23:21.249Z,99859.44
2019-04-23T21:26:25.113Z,99862.23
2019-04-23T21:29:37.746Z,99859.50
2019-04-23T21:32:43.726Z,99862.64
2019-04-23T21:36:03.187Z,99861.36
2019-04-23T21:39:10.407Z,99854.75
2019-04-23T21:42:14.224Z,99857.13
2019-04-23T21:45:13.157Z,99850.50
2019-04-23T21:48:36.676Z,99849.12
2019-04-23T21:51:46.445Z,99848.24
2019-04-23T21:54:30.755Z,99844.64
2019-04-23T21:57:42.101Z,99844.08
2019-04-23T22:00:44.456Z,99839.98
2019-04-23T22:04:05.149Z,99836.13
2019-04-23T22:09:53.348Z,99828.52
2019-04-23T22:13:09.579Z,99826.48
2019-04-23T22:16:07.271Z,99822.36
2019-04-23T22:19:10.468Z,99820.58
2019-04-23T22:22:00.854Z,99816.13
2019-04-23T22:25:02.977Z,99805.89
2019-04-23T22:28:21.153Z,99797.95
2019-04-23T22:31:18.605Z,99804.02
2019-04-23T22:34:21.708Z,99800.20
2019-04-23T22:37:39.803Z,99794.69
2019-04-23T22:40:31.390Z,99798.05
2019-04-23T22:44:02.397Z,99799.70
2019-04-23T22:46:52.999Z,99793.16
2019-04-23T22:49:47.938Z,99790.44
2019-04-23T22:52:54.048Z,99782.77
2019-04-23T22:55:57.671Z,99779.30
2019-04-23T22:59:18.706Z,99771.35
2019-04-23T23:02:18.567Z,99769.45
2019-04-23T23:05:14.118Z,99767.23
2019-04-23T23:11:13.668Z,99769.68
2019-04-23T23:17:24.204Z,99753.30
2019-04-23T23:20:29.592Z,99752.73
2019-04-23T23:26:54.367Z,99755.02
2019-04-23T23:29:49.391Z,99748.08
2019-04-23T23:32:51.732Z,99752.15
2019-04-23T23:39:00.487Z,99744.11
2019-04-23T23:41:57.191Z,99734.25
2019-04-23T23:45:03.548Z,99732.59
2019-04-23T23:51:15.861Z,99728.28
